Time;durP1;ratioP1;P1;durP2;ratioP2;P2;SDS_P1;SDS_P2;PMS_P1;PMS_P2;Temp;Humidity;BMP_temperature;BMP_pressure;BME280_temperature;BME280_humidity;BME280_pressure;Samples;Min_cycle;Max_cycle;Signal;HPM_P1;HPM_P2
2021/07/20 00:00:19;;;;;;;;;24.33;21.00;;;;;20.12;100.00;99272.88;3195467;41;3576262;-55
2021/07/20 00:02:52;;;;;;;;;25.00;23.67;;;;;20.18;100.00;99265.91;3191243;41;3581788;-54
2021/07/20 00:05:24;;;;;;;;;21.50;19.50;;;;;20.13;100.00;99271.00;3192698;41;2829437;-56
2021/07/20 00:08:00;;;;;;;;;21.00;20.00;;;;;20.00;100.00;99265.16;3193790;41;2838765;-55
2021/07/20 00:10:33;;;;;;;;;24.00;21.50;;;;;20.28;100.00;99274.78;3196761;41;2838494;-55
2021/07/20 00:13:03;;;;;;;;;29.33;25.00;;;;;19.87;100.00;99273.78;3196408;41;3589780;-55
2021/07/20 00:15:34;;;;;;;;;23.33;21.00;;;;;20.14;100.00;99267.25;3193620;41;2841976;-52
2021/07/20 00:18:17;;;;;;;;;26.00;26.00;;;;;20.23;100.00;99276.31;3209394;41;2843104;-52
2021/07/20 00:20:45;;;;;;;;;23.00;22.00;;;;;20.22;100.00;99283.66;3207099;41;2834629;-54
2021/07/20 00:23:13;;;;;;;;;22.00;22.00;;;;;20.08;100.00;99278.81;3199690;41;3581478;-53
2021/07/20 00:25:41;;;;;;;;;18.50;18.50;;;;;20.11;100.00;99281.19;3192571;41;2840160;-55
2021/07/20 00:28:09;;;;;;;;;23.67;21.00;;;;;20.17;100.00;99278.69;3193403;41;2836697;-55
2021/07/20 00:30:38;;;;;;;;;26.00;23.00;;;;;20.20;100.00;99282.94;3212625;41;2844016;-55
2021/07/20 00:33:07;;;;;;;;;27.33;23.00;;;;;20.17;100.00;99280.56;3209024;41;2848298;-54
2021/07/20 00:35:35;;;;;;;;;23.00;21.00;;;;;20.12;100.00;99274.75;3210868;41;3576524;-53
2021/07/20 00:38:04;;;;;;;;;28.00;23.50;;;;;20.21;100.00;99273.75;3191593;41;2850488;-53
2021/07/20 00:40:32;;;;;;;;;21.50;21.50;;;;;20.07;100.00;99271.66;3193376;41;2838797;-54
2021/07/20 00:43:01;;;;;;;;;24.67;23.33;;;;;20.14;100.00;99272.69;3195996;41;3578402;-54
2021/07/20 00:45:30;;;;;;;;;23.33;21.67;;;;;20.15;100.00;99279.88;3196542;41;3564825;-55
2021/07/20 00:47:58;;;;;;;;;24.50;22.00;;;;;20.18;100.00;99276.81;3192617;41;2839818;-54
2021/07/20 00:50:37;;;;;;;;;24.67;22.33;;;;;20.06;100.00;99270.78;3192699;41;3583550;-54
2021/07/20 00:53:05;;;;;;;;;23.50;23.50;;;;;20.09;100.00;99275.06;3193184;41;2841893;-53
2021/07/20 00:55:35;;;;;;;;;25.00;22.00;;;;;20.12;100.00;99270.16;3193402;41;2834642;-56
2021/07/20 00:58:05;;;;;;;;;23.67;23.67;;;;;20.15;100.00;99266.25;3185548;41;3582499;-55
2021/07/20 01:00:34;;;;;;;;;28.67;23.00;;;;;20.16;100.00;99267.94;3192703;41;2846376;-53
2021/07/20 01:03:04;;;;;;;;;20.00;20.00;;;;;20.15;100.00;99263.50;3208345;41;2830443;-54
2021/07/20 01:05:34;;;;;;;;;23.00;21.50;;;;;20.21;100.00;99254.66;3192705;41;2834587;-54
2021/07/20 01:08:06;;;;;;;;;24.00;21.67;;;;;20.13;100.00;99260.94;3197279;41;3582489;-52
2021/07/20 01:10:35;;;;;;;;;28.00;25.00;;;;;20.10;100.00;99260.44;3183692;41;2844023;-51
2021/07/20 01:13:04;;;;;;;;;25.00;23.00;;;;;20.14;100.00;99264.50;3193134;41;2829422;-54
2021/07/20 01:15:36;;;;;;;;;24.00;21.50;;;;;19.95;100.00;99266.50;3184376;41;2830540;-55
2021/07/20 01:18:06;;;;;;;;;25.00;22.67;;;;;19.97;100.00;99260.91;3197672;41;3567921;-55
2021/07/20 01:20:35;;;;;;;;;27.00;23.33;;;;;20.08;100.00;99259.72;3192093;41;2848441;-56
2021/07/20 01:23:17;;;;;;;;;19.50;16.00;;;;;20.01;100.00;99256.84;3208976;41;2828379;-56
2021/07/20 01:25:46;;;;;;;;;24.33;23.00;;;;;19.87;100.00;99249.28;3195896;41;3578362;-55
2021/07/20 01:28:22;;;;;;;;;31.33;28.00;;;;;19.95;100.00;99254.75;3181226;41;3603583;-56
2021/07/20 01:31:02;;;;;;;;;26.67;23.67;;;;;19.93;100.00;99260.38;3202228;41;3578381;-58
2021/07/20 01:33:32;;;;;;;;;28.00;24.00;;;;;19.91;100.00;99256.13;3196097;41;3596050;-58
2021/07/20 01:36:03;;;;;;;;;22.00;20.00;;;;;19.86;100.00;99242.97;3184492;41;2841936;-56
2021/07/20 01:38:32;;;;;;;;;25.00;21.00;;;;;19.92;100.00;99236.84;3184191;41;3578333;-56
2021/07/20 01:41:08;;;;;;;;;22.67;20.00;;;;;19.78;100.00;99232.06;3190663;41;3570257;-53
2021/07/20 01:43:42;;;;;;;;;22.50;21.50;;;;;19.92;100.00;99225.13;3206094;41;2840867;-55
2021/07/20 01:46:11;;;;;;;;;23.67;22.33;;;;;19.97;100.00;99228.19;3197892;41;3555656;-56
2021/07/20 01:48:44;;;;;;;;;23.00;22.00;;;;;19.95;100.00;99225.63;3199640;41;2839030;-56
2021/07/20 01:51:13;;;;;;;;;22.33;21.00;;;;;19.94;100.00;99218.47;3187155;41;3556456;-55
2021/07/20 01:53:42;;;;;;;;;20.50;20.50;;;;;19.81;100.00;99209.94;3183315;41;2836704;-55
2021/07/20 01:56:11;;;;;;;;;24.00;21.00;;;;;19.64;100.00;99202.66;3194929;41;3568277;-55
2021/07/20 01:58:43;;;;;;;;;30.00;26.00;;;;;19.93;100.00;99205.88;3210558;41;3592924;-56
2021/07/20 02:01:47;;;;;;;;;19.33;19.33;;;;;19.91;100.00;99207.06;3184502;41;3579409;-56
2021/07/20 02:09:42;;;;;;;;;21.50;20.50;;;;;19.76;100.00;99201.41;3207319;41;2825243;-55
2021/07/20 02:12:17;;;;;;;;;22.50;21.00;;;;;19.78;100.00;99201.25;3192404;41;2838802;-55
2021/07/20 02:14:48;;;;;;;;;25.00;23.00;;;;;19.97;98.87;99208.28;3194623;41;3567907;-57
2021/07/20 02:17:18;;;;;;;;;27.33;23.33;;;;;19.86;99.81;99196.66;3194824;41;3584640;-58
2021/07/20 02:19:58;;;;;;;;;23.50;21.50;;;;;19.71;100.00;99195.59;3188612;41;2827379;-56
2021/07/20 02:22:26;;;;;;;;;23.33;22.00;;;;;19.79;100.00;99203.78;3185577;41;3578371;-58
2021/07/20 02:24:56;;;;;;;;;22.67;21.67;;;;;19.70;100.00;99205.63;3192395;41;3570013;-58
2021/07/20 02:27:26;;;;;;;;;23.00;23.00;;;;;19.66;100.00;99208.81;3192325;41;2826360;-57
2021/07/20 02:29:59;;;;;;;;;24.67;22.33;;;;;19.79;100.00;99211.97;3183405;41;3575659;-56
2021/07/20 02:32:29;;;;;;;;;22.00;20.00;;;;;19.78;100.00;99220.31;3195249;41;3567934;-56
2021/07/20 02:34:59;;;;;;;;;22.00;21.33;;;;;19.64;100.00;99210.84;3185569;41;3563760;-56
2021/07/20 02:37:29;;;;;;;;;25.00;23.50;;;;;19.78;99.79;99207.53;3185422;41;2832583;-55
2021/07/20 02:39:58;;;;;;;;;27.67;25.33;;;;;19.74;99.50;99215.16;3183911;41;3600481;-55
2021/07/20 02:42:27;;;;;;;;;23.50;21.50;;;;;19.57;100.00;99210.66;3192641;41;2841145;-55
2021/07/20 02:44:56;;;;;;;;;27.50;24.50;;;;;19.71;99.62;99203.75;3192654;41;2847123;-56
2021/07/20 02:47:26;;;;;;;;;31.67;23.00;;;;;19.63;99.95;99204.53;3196266;40;2855575;-55
2021/07/20 02:49:55;;;;;;;;;26.67;20.33;;;;;19.58;99.99;99196.00;3202497;41;3581678;-56
2021/07/20 02:52:28;;;;;;;;;24.00;24.00;;;;;19.63;99.73;99204.53;3194911;41;3564817;-56
2021/07/20 02:54:58;;;;;;;;;23.00;21.33;;;;;19.52;100.00;99193.97;3187358;41;3563723;-56
2021/07/20 02:57:27;;;;;;;;;27.00;24.00;;;;;19.60;99.31;99204.03;3196040;40;2841890;-56
2021/07/20 02:59:56;;;;;;;;;25.50;22.00;;;;;19.52;100.00;99197.53;3182807;41;2848134;-54
2021/07/20 03:02:26;;;;;;;;;24.00;21.00;;;;;19.64;98.87;99195.38;3183760;41;2827334;-56
2021/07/20 03:04:54;;;;;;;;;27.67;24.00;;;;;19.61;99.28;99195.69;3194123;41;3576298;-55
2021/07/20 03:07:28;;;;;;;;;25.00;22.33;;;;;19.57;99.03;99204.38;3198439;40;3578333;-56
2021/07/20 03:09:59;;;;;;;;;25.50;23.50;;;;;19.51;99.14;99212.19;3180982;41;2842964;-56
2021/07/20 03:12:29;;;;;;;;;19.00;17.00;;;;;19.38;100.00;99211.78;3184225;41;2826327;-56
2021/07/20 03:14:59;;;;;;;;;22.50;20.00;;;;;19.34;99.53;99212.25;3180272;41;2832495;-57
2021/07/20 03:17:30;;;;;;;;;20.00;19.67;;;;;19.38;99.47;99214.50;3187773;41;3573126;-54
2021/07/20 03:19:59;;;;;;;;;29.00;24.00;;;;;19.39;100.00;99218.91;3182723;41;2850274;-55
2021/07/20 03:22:30;;;;;;;;;26.00;23.50;;;;;19.33;100.00;99218.72;3188086;41;2842935;-59
2021/07/20 03:25:03;;;;;;;;;25.50;22.50;;;;;19.29;99.95;99220.91;3180573;41;2840872;-58
2021/07/20 03:27:34;;;;;;;;;26.33;23.00;;;;;19.21;100.00;99220.84;3194155;41;2842989;-59
2021/07/20 03:30:04;;;;;;;;;23.00;21.00;;;;;19.35;100.00;99222.97;3199146;41;2837786;-57
2021/07/20 03:32:33;;;;;;;;;26.33;22.33;;;;;19.16;100.00;99217.75;3194387;41;3568987;-56
2021/07/20 03:35:01;;;;;;;;;25.00;22.00;;;;;19.05;100.00;99218.88;3190900;41;3559577;-55
2021/07/20 03:37:30;;;;;;;;;28.33;21.67;;;;;19.17;100.00;99209.44;3211150;41;3584659;-55
2021/07/20 03:39:59;;;;;;;;;25.00;23.50;;;;;19.27;100.00;99220.19;3183336;41;2840899;-55
2021/07/20 03:42:28;;;;;;;;;22.00;22.00;;;;;19.27;100.00;99226.53;3183139;41;2833587;-55
2021/07/20 03:44:56;;;;;;;;;25.00;22.00;;;;;19.15;100.00;99222.34;3190585;41;2818000;-55
2021/07/20 03:47:26;;;;;;;;;25.00;24.00;;;;;19.11;100.00;99239.16;3192696;41;2845050;-55
2021/07/20 03:49:55;;;;;;;;;22.50;21.00;;;;;19.03;100.00;99229.91;3184571;41;2839829;-55
2021/07/20 03:52:24;;;;;;;;;24.50;23.00;;;;;19.06;100.00;99229.63;3189680;41;2826281;-53
2021/07/20 03:54:53;;;;;;;;;25.33;23.00;;;;;18.99;100.00;99228.53;3183209;41;2841920;-56
2021/07/20 03:57:23;;;;;;;;;23.00;22.00;;;;;18.98;100.00;99231.41;3209874;41;2839811;-56
2021/07/20 03:59:57;;;;;;;;;24.00;22.67;;;;;19.12;100.00;99238.16;3187564;41;2836701;-54
2021/07/20 04:02:30;;;;;;;;;27.00;22.00;;;;;19.11;99.90;99239.16;3200873;41;2837735;-57
2021/07/20 04:04:59;;;;;;;;;23.33;22.00;;;;;19.18;99.73;99243.81;3193044;41;3578369;-58
2021/07/20 04:07:28;;;;;;;;;31.00;24.33;;;;;19.26;99.36;99251.16;3181903;41;3598399;-58
2021/07/20 04:10:00;;;;;;;;;29.33;26.00;;;;;19.03;100.00;99251.69;3207514;41;3574160;-57
2021/07/20 04:12:29;;;;;;;;;24.50;22.50;;;;;19.03;100.00;99257.13;3205518;41;2846067;-58
2021/07/20 04:14:57;;;;;;;;;23.67;21.33;;;;;19.08;99.45;99257.50;3189962;41;2838824;-57
2021/07/20 04:17:27;;;;;;;;;27.67;22.00;;;;;19.01;99.84;99263.75;3208545;41;3562710;-58
2021/07/20 04:19:56;;;;;;;;;21.00;21.00;;;;;18.84;100.00;99255.47;3182618;41;2498146;-57
2021/07/20 04:22:24;;;;;;;;;23.00;23.00;;;;;18.80;100.00;99253.22;3189431;41;2836686;-53
2021/07/20 04:24:53;;;;;;;;;24.67;22.00;;;;;19.15;99.89;99263.19;3188537;41;2836717;-55
2021/07/20 04:27:22;;;;;;;;;21.50;19.50;;;;;19.07;99.03;99258.53;3209319;41;2833553;-56
2021/07/20 04:29:50;;;;;;;;;28.67;27.33;;;;;18.84;100.00;99262.78;3195868;41;3594989;-54
2021/07/20 04:32:20;;;;;;;;;25.50;23.00;;;;;18.77;100.00;99257.13;3193591;41;2832512;-52
2021/07/20 04:34:49;;;;;;;;;29.00;28.00;;;;;18.91;100.00;99263.00;3189642;41;2855528;-55
2021/07/20 04:37:19;;;;;;;;;25.50;23.50;;;;;18.94;100.00;99263.53;3208128;41;2835658;-53
2021/07/20 04:39:48;;;;;;;;;27.00;21.33;;;;;18.91;100.00;99268.47;3197179;41;3569997;-55
2021/07/20 04:42:16;;;;;;;;;21.50;21.50;;;;;18.80;100.00;99266.81;3192410;41;2839817;-55
2021/07/20 04:44:44;;;;;;;;;27.67;26.00;;;;;18.73;100.00;99265.72;3190970;41;3587744;-53
2021/07/20 04:47:12;;;;;;;;;24.00;22.67;;;;;18.93;100.00;99272.72;3183284;41;3579396;-55
2021/07/20 04:49:41;;;;;;;;;24.33;23.67;;;;;19.00;99.46;99281.94;3191937;41;3580684;-55
2021/07/20 04:52:09;;;;;;;;;20.67;20.67;;;;;19.01;99.38;99280.94;3186192;41;3582560;-55
2021/07/20 04:54:38;;;;;;;;;26.67;23.67;;;;;18.93;100.00;99274.56;3194482;41;3581728;-53
2021/07/20 04:57:07;;;;;;;;;27.00;23.00;;;;;19.03;99.04;99272.59;3183807;41;2842016;-55
2021/07/20 04:59:37;;;;;;;;;27.67;25.00;;;;;18.99;99.74;99274.81;3203011;41;3591849;-55
2021/07/20 05:02:09;;;;;;;;;25.67;24.00;;;;;19.01;99.57;99280.06;3195636;41;3572137;-55
2021/07/20 05:04:38;;;;;;;;;26.33;22.67;;;;;19.18;99.25;99283.78;3195409;41;3593954;-58
2021/07/20 05:07:11;;;;;;;;;26.00;23.00;;;;;19.16;98.70;99277.63;3187429;41;3570013;-56
2021/07/20 05:09:40;;;;;;;;;26.00;24.67;;;;;19.35;98.05;99282.84;3182942;41;3581455;-57
2021/07/20 05:12:12;;;;;;;;;31.33;27.33;;;;;19.35;97.72;99279.28;3182960;41;2856593;-57
2021/07/20 05:14:42;;;;;;;;;24.67;22.00;;;;;19.45;97.74;99282.75;3209261;41;3583565;-58
2021/07/20 05:17:31;;;;;;;;;26.00;24.00;;;;;19.57;97.33;99286.06;3195668;41;3584577;-55
2021/07/20 05:19:59;;;;;;;;;27.67;25.00;;;;;19.91;95.73;99284.22;3195593;41;3589043;-57
2021/07/20 05:22:29;;;;;;;;;24.00;24.00;;;;;19.87;95.60;99276.53;3195155;41;2837754;-53
2021/07/20 05:24:57;;;;;;;;;27.33;25.00;;;;;20.35;93.45;99283.13;3195354;41;3597092;-54
2021/07/20 05:27:26;;;;;;;;;29.33;26.00;;;;;20.38;93.42;99285.56;3190506;41;2848621;-55
2021/07/20 05:29:54;;;;;;;;;24.67;23.67;;;;;20.34;93.93;99285.03;3200905;41;3584568;-54
2021/07/20 05:32:24;;;;;;;;;28.67;24.67;;;;;20.44;93.18;99287.59;3199544;41;3594427;-53
2021/07/20 05:34:53;;;;;;;;;21.00;21.00;;;;;20.39;94.32;99285.38;3180108;41;3573110;-55
2021/07/20 05:37:21;;;;;;;;;24.00;22.67;;;;;20.61;93.10;99294.81;3185563;41;3576275;-54
2021/07/20 05:39:50;;;;;;;;;32.00;29.00;;;;;20.75;90.91;99285.13;3187395;41;3615828;-54
2021/07/20 05:42:19;;;;;;;;;24.00;24.00;;;;;21.04;90.55;99286.50;3196645;41;3581466;-53
2021/07/20 05:44:47;;;;;;;;;28.00;26.00;;;;;21.16;90.81;99290.56;3192609;41;3592956;-52
2021/07/20 05:47:17;;;;;;;;;29.00;25.67;;;;;21.36;88.66;99291.06;3186823;41;3590841;-54
2021/07/20 05:49:57;;;;;;;;;28.00;28.00;;;;;21.53;88.42;99291.03;3182385;41;3587709;-49
2021/07/20 05:52:28;;;;;;;;;24.67;21.00;;;;;21.50;86.32;99292.25;3193710;41;2832535;-53
2021/07/20 05:54:57;;;;;;;;;24.00;22.67;;;;;21.41;86.29;99294.16;3202105;41;3581447;-52
2021/07/20 05:57:28;;;;;;;;;25.00;24.00;;;;;21.41;87.57;99298.75;3192059;41;2840867;-52
2021/07/20 05:59:57;;;;;;;;;21.33;20.33;;;;;21.78;83.92;99300.03;3199940;41;2842967;-54
2021/07/20 06:02:27;;;;;;;;;25.33;22.33;;;;;21.82;82.43;99302.22;3214298;41;3575213;-54
2021/07/20 06:04:56;;;;;;;;;25.33;23.33;;;;;21.99;81.91;99300.28;3182270;41;2838009;-52
2021/07/20 06:07:24;;;;;;;;;22.67;22.67;;;;;21.70;83.46;99304.47;3210948;41;3563752;-53
2021/07/20 06:09:55;;;;;;;;;20.67;18.33;;;;;21.87;83.76;99301.69;3192110;41;2838788;-51
2021/07/20 06:12:24;;;;;;;;;24.50;22.50;;;;;22.08;81.16;99301.94;3208062;41;2849207;-53
2021/07/20 06:14:53;;;;;;;;;26.67;21.33;;;;;22.42;79.20;99302.66;3192610;41;3564796;-52
2021/07/20 06:17:26;;;;;;;;;26.00;24.33;;;;;22.34;79.05;99306.28;3195487;41;3585649;-53
2021/07/20 06:19:58;;;;;;;;;28.00;24.33;;;;;22.68;78.29;99302.31;3187505;41;3575190;-54
2021/07/20 06:22:32;;;;;;;;;28.33;27.33;;;;;22.70;78.11;99303.00;3194512;41;3589789;-55
2021/07/20 06:25:04;;;;;;;;;25.67;22.00;;;;;22.93;77.60;99302.97;3192972;41;3579380;-53
2021/07/20 06:27:35;;;;;;;;;29.67;28.00;;;;;22.86;79.08;99299.28;3194555;41;3587677;-52
2021/07/20 06:30:05;;;;;;;;;24.00;22.00;;;;;23.21;74.96;99311.50;3195483;41;3571023;-54
2021/07/20 06:32:33;;;;;;;;;21.00;21.00;;;;;23.26;75.40;99306.31;3190485;41;3572088;-55
2021/07/20 06:35:01;;;;;;;;;23.00;21.67;;;;;23.41;72.77;99304.47;3192116;41;3579629;-56
2021/07/20 06:37:30;;;;;;;;;23.00;23.00;;;;;23.37;74.67;99319.56;3186838;41;3571063;-55
2021/07/20 06:39:58;;;;;;;;;23.67;23.33;;;;;23.88;71.20;99308.78;3195257;41;3573125;-55
2021/07/20 06:42:27;;;;;;;;;25.33;21.33;;;;;24.30;70.12;99315.44;3197292;41;3586663;-54
2021/07/20 06:44:55;;;;;;;;;23.33;22.33;;;;;24.64;69.80;99316.69;3193155;41;3587697;-55
2021/07/20 06:47:23;;;;;;;;;26.67;24.00;;;;;24.71;69.39;99314.88;3194548;41;3572061;-52
2021/07/20 06:49:52;;;;;;;;;23.33;23.33;;;;;24.53;68.36;99320.78;3186733;41;3583570;-54
2021/07/20 06:52:20;;;;;;;;;22.00;20.33;;;;;24.79;68.39;99318.53;3200322;41;3564788;-55
2021/07/20 06:54:48;;;;;;;;;27.33;22.00;;;;;25.03;67.05;99312.66;3195119;41;3575260;-53
2021/07/20 06:57:18;;;;;;;;;25.00;22.67;;;;;24.80;68.71;99312.00;3185539;41;3581471;-56
2021/07/20 06:59:46;;;;;;;;;21.00;20.00;;;;;25.12;65.84;99330.72;3186653;41;3567953;-55
2021/07/20 07:02:22;;;;;;;;;24.67;22.67;;;;;25.47;65.01;99321.72;3191707;41;3568215;-56
2021/07/20 07:05:02;;;;;;;;;21.67;21.67;;;;;25.08;66.53;99318.41;3186832;41;3579407;-56
2021/07/20 07:07:31;;;;;;;;;25.00;23.67;;;;;25.53;66.32;99324.50;3191996;41;3576322;-55
2021/07/20 07:10:01;;;;;;;;;23.67;22.67;;;;;25.75;65.55;99324.44;3185345;41;3567950;-56
2021/07/20 07:12:32;;;;;;;;;24.33;22.67;;;;;25.76;63.93;99324.25;3186800;41;3578338;-55
2021/07/20 07:15:04;;;;;;;;;25.67;24.33;;;;;25.98;63.75;99325.03;3186825;41;3566932;-56
2021/07/20 07:17:34;;;;;;;;;24.00;22.00;;;;;26.04;62.77;99329.75;3199077;41;3576314;-57
2021/07/20 07:20:05;;;;;;;;;27.50;26.50;;;;;25.93;63.27;99322.06;3185803;41;3596124;-57
2021/07/20 07:22:37;;;;;;;;;30.00;23.67;;;;;26.10;63.71;99332.75;3212956;41;3592890;-58
2021/07/20 07:25:07;;;;;;;;;18.00;18.00;;;;;26.33;62.56;99326.91;3195833;41;3560960;-57
2021/07/20 07:27:38;;;;;;;;;23.00;21.00;;;;;26.50;61.60;99340.13;3190100;41;3556535;-57
2021/07/20 07:30:08;;;;;;;;;19.33;19.00;;;;;25.28;63.42;99328.78;3193753;41;3554381;-57
2021/07/20 07:32:37;;;;;;;;;21.00;19.00;;;;;25.96;61.63;99332.69;3195980;41;3575213;-57
2021/07/20 07:35:07;;;;;;;;;26.33;24.33;;;;;25.23;65.24;99326.63;3196562;41;3587780;-56
2021/07/20 07:37:36;;;;;;;;;22.33;22.33;;;;;26.13;62.75;99335.94;3190061;41;3577301;-57
2021/07/20 07:40:08;;;;;;;;;25.67;23.33;;;;;26.64;61.75;99340.19;3185969;41;3585653;-57
2021/07/20 07:42:38;;;;;;;;;23.33;22.00;;;;;25.60;62.01;99336.41;3196892;41;3581479;-57
2021/07/20 07:45:08;;;;;;;;;20.33;20.33;;;;;25.02;65.04;99335.69;3196549;41;3557565;-57
2021/07/20 07:47:38;;;;;;;;;23.00;23.00;;;;;24.80;67.06;99336.72;3200480;41;3581498;-57
2021/07/20 07:50:07;;;;;;;;;20.67;19.00;;;;;25.36;63.69;99334.13;3189886;41;3574210;-57
2021/07/20 07:52:36;;;;;;;;;25.00;21.00;;;;;25.44;63.79;99331.22;3193056;41;3576231;-57
2021/07/20 07:55:06;;;;;;;;;22.00;18.67;;;;;26.13;60.89;99337.84;3191520;41;2837866;-58
2021/07/20 07:57:34;;;;;;;;;24.00;21.00;;;;;25.76;60.84;99337.16;3211171;41;3568499;-57
2021/07/20 08:00:06;;;;;;;;;21.33;19.00;;;;;25.38;60.01;99332.00;3195175;41;3573114;-58
2021/07/20 08:02:36;;;;;;;;;22.67;21.67;;;;;26.35;60.91;99336.66;3191103;41;3576247;-55
2021/07/20 08:05:07;;;;;;;;;23.00;18.00;;;;;26.72;58.12;99340.00;3188181;41;3568948;-58
2021/07/20 08:07:37;;;;;;;;;12.33;12.33;;;;;26.69;56.71;99332.16;3201348;41;2796070;-57
2021/07/20 08:10:10;;;;;;;;;20.00;18.00;;;;;26.67;56.37;99345.28;3198541;41;2835632;-57
2021/07/20 08:12:42;;;;;;;;;20.67;18.33;;;;;26.91;54.67;99336.47;3196718;41;3571027;-58
2021/07/20 08:15:10;;;;;;;;;19.33;16.67;;;;;26.68;57.61;99333.22;3188259;41;3558592;-59
2021/07/20 08:17:39;;;;;;;;;19.50;18.00;;;;;27.25;55.15;99339.25;3191399;41;2838040;-58
2021/07/20 08:20:09;;;;;;;;;18.33;18.33;;;;;26.64;55.45;99335.53;3196207;41;3570017;-58
2021/07/20 08:22:38;;;;;;;;;22.67;18.67;;;;;26.92;56.10;99332.63;3200250;41;3544987;-55
2021/07/20 08:25:24;;;;;;;;;22.00;20.00;;;;;26.68;55.38;99335.97;3191883;41;2831493;-55
2021/07/20 08:28:08;;;;;;;;;22.00;19.33;;;;;27.02;58.26;99337.75;3215970;40;3571039;-55
2021/07/20 08:30:42;;;;;;;;;20.67;20.00;;;;;27.48;55.34;99341.59;3193186;41;2834935;-57
2021/07/20 08:33:19;;;;;;;;;21.67;18.67;;;;;27.54;55.74;99335.22;3204554;41;3561697;-55
2021/07/20 08:35:53;;;;;;;;;18.00;17.00;;;;;27.86;54.66;99343.72;3188880;41;2678769;-55
2021/07/20 08:38:22;;;;;;;;;22.00;22.00;;;;;27.51;55.55;99335.66;3209281;41;3571336;-58
2021/07/20 08:40:50;;;;;;;;;19.67;19.67;;;;;27.26;56.28;99339.06;3187983;41;3571071;-57
2021/07/20 08:44:14;;;;;;;;;21.00;21.00;;;;;27.11;57.07;99335.63;3189102;41;3573107;-57
2021/07/20 08:47:09;;;;;;;;;19.00;17.67;;;;;27.15;54.43;99339.66;3186395;41;3571039;-57
2021/07/20 08:50:18;;;;;;;;;19.00;19.00;;;;;27.17;54.84;99345.81;3186498;41;3565830;-58
2021/07/20 08:53:31;;;;;;;;;18.00;18.00;;;;;27.48;54.73;99341.59;3184918;41;3568944;-58
2021/07/20 08:56:00;;;;;;;;;23.67;21.67;;;;;27.47;56.37;99345.44;3189311;40;3566876;-57
2021/07/20 08:58:59;;;;;;;;;20.67;20.67;;;;;27.61;55.66;99336.09;3186652;41;3581448;-57
2021/07/20 09:01:40;;;;;;;;;21.67;19.00;;;;;27.38;54.88;99339.28;3188080;41;3567909;-58
2021/07/20 09:04:39;;;;;;;;;24.67;22.00;;;;;27.77;53.92;99345.81;3187962;41;3585662;-57
2021/07/20 09:07:11;;;;;;;;;23.67;21.33;;;;;27.99;52.61;99349.22;3186772;41;3577317;-58
2021/07/20 09:09:46;;;;;;;;;25.67;20.67;;;;;27.12;55.28;99348.34;3188005;41;3573376;-57
2021/07/20 09:12:25;;;;;;;;;22.67;20.00;;;;;28.00;54.61;99342.63;3188860;41;3562722;-57
2021/07/20 09:15:04;;;;;;;;;21.00;19.67;;;;;26.87;59.11;99329.66;3184726;41;3566912;-57
2021/07/20 09:17:43;;;;;;;;;23.00;21.33;;;;;27.23;57.86;99325.72;3190637;41;3574164;-57
2021/07/20 09:20:36;;;;;;;;;21.00;18.33;;;;;26.39;61.70;99326.09;3190464;41;3567123;-57
2021/07/20 09:23:25;;;;;;;;;22.00;22.00;;;;;26.12;58.46;99330.63;3184862;41;3576258;-57
2021/07/20 09:26:04;;;;;;;;;68.00;39.33;;;;;26.18;58.89;99332.56;3182409;41;2895401;-56
2021/07/20 09:28:52;;;;;;;;;29.00;22.50;;;;;27.56;55.28;99335.88;3205856;41;3588758;-56
2021/07/20 09:31:32;;;;;;;;;28.00;24.00;;;;;27.88;54.65;99331.41;3203268;41;3589777;-57
2021/07/20 09:34:20;;;;;;;;;40.33;30.00;;;;;27.54;56.43;99344.38;3186505;41;2867966;-57
2021/07/20 09:37:01;;;;;;;;;26.67;26.00;;;;;27.26;55.61;99330.81;3200468;41;3596033;-57
2021/07/20 09:39:45;;;;;;;;;39.25;29.50;;;;;26.54;58.59;99334.22;3193983;41;4362678;-57
2021/07/20 09:42:25;;;;;;;;;27.50;24.50;;;;;25.85;61.60;99333.22;3212324;41;3592905;-57
2021/07/20 09:45:12;;;;;;;;;25.33;23.33;;;;;25.69;62.50;99325.25;3212472;41;3579423;-54
2021/07/20 09:48:03;;;;;;;;;45.00;32.25;;;;;25.84;62.19;99326.03;3188363;41;4349148;-56
2021/07/20 09:50:45;;;;;;;;;24.00;22.67;;;;;26.79;60.16;99332.59;3209596;41;3585621;-57
2021/07/20 09:53:20;;;;;;;;;46.67;29.33;;;;;27.27;57.95;99335.25;3188022;41;1907656;-57
2021/07/20 09:56:35;;;;;;;;;23.00;22.00;;;;;27.64;56.47;99345.84;3210071;41;3575482;-56
2021/07/20 09:59:48;;;;;;;;;27.00;23.33;;;;;27.55;55.39;99335.03;3194748;41;3578623;-57
2021/07/20 10:02:40;;;;;;;;;26.00;18.33;;;;;27.75;54.81;99335.03;3184519;41;3585598;-56
2021/07/20 10:05:38;;;;;;;;;19.00;19.00;;;;;27.99;52.71;99333.50;3193297;41;2833952;-55
2021/07/20 10:08:40;;;;;;;;;24.00;18.00;;;;;28.23;53.45;99333.88;3206147;41;3579367;-56
2021/07/20 10:11:22;;;;;;;;;20.67;19.33;;;;;28.56;49.80;99325.44;3187624;41;3579395;-57
2021/07/20 10:14:11;;;;;;;;;24.00;21.00;;;;;27.92;53.95;99320.78;3187711;41;3577289;-56
2021/07/20 10:17:16;;;;;;;;;20.00;17.33;;;;;28.43;53.62;99328.25;3193513;41;3575225;-57
2021/07/20 10:20:15;;;;;;;;;19.33;18.33;;;;;28.08;53.14;99320.31;3200627;41;3569988;-57
2021/07/20 10:22:58;;;;;;;;;22.67;20.33;;;;;28.08;54.14;99325.00;3192982;41;3566879;-57
2021/07/20 10:26:00;;;;;;;;;21.00;20.33;;;;;28.36;53.19;99321.94;3202625;41;3575233;-58
2021/07/20 10:28:41;;;;;;;;;23.33;22.33;;;;;28.44;53.55;99316.19;3195216;40;3565855;-57
2021/07/20 10:31:15;;;;;;;;;22.67;20.00;;;;;28.70;53.90;99319.84;3203714;41;3583526;-56
2021/07/20 10:34:07;;;;;;;;;20.00;18.67;;;;;28.34;53.45;99313.84;3188132;41;3573106;-57
2021/07/20 10:37:12;;;;;;;;;22.00;21.00;;;;;28.48;53.49;99314.66;3189503;41;2834618;-57
2021/07/20 10:39:49;;;;;;;;;23.00;20.00;;;;;27.65;54.20;99309.78;3191105;41;3575286;-56
2021/07/20 10:42:49;;;;;;;;;25.67;22.00;;;;;26.87;55.87;99312.28;3189549;41;2840943;-56
2021/07/20 10:45:18;;;;;;;;;20.00;20.00;;;;;26.55;56.40;99302.88;3208670;41;3584564;-56
2021/07/20 10:48:00;;;;;;;;;21.00;20.00;;;;;28.41;51.71;99317.44;3195884;41;3566863;-57
2021/07/20 10:50:38;;;;;;;;;22.33;20.33;;;;;28.34;51.66;99307.47;3195855;41;3569978;-57
2021/07/20 10:53:36;;;;;;;;;21.67;20.00;;;;;27.35;55.52;99310.22;3191400;41;3575187;-57
2021/07/20 10:56:11;;;;;;;;;20.00;18.67;;;;;27.74;54.80;99302.97;3196654;41;3565864;-57
2021/07/20 10:59:10;;;;;;;;;10.40;8.80;;;;;26.77;55.99;99304.41;3209541;41;2771072;-57
2021/07/20 11:02:07;;;;;;;;;20.00;20.00;;;;;26.63;58.20;99298.03;3196896;41;3559810;-57
2021/07/20 11:05:06;;;;;;;;;23.33;23.00;;;;;27.78;53.74;99304.22;3194613;41;3571024;-56
2021/07/20 11:07:47;;;;;;;;;24.67;21.33;;;;;27.99;55.07;99303.16;3188932;41;3565826;-62
2021/07/20 11:10:22;;;;;;;;;23.33;22.00;;;;;28.24;52.90;99297.75;3189422;41;3579636;-57
2021/07/20 11:12:57;;;;;;;;;18.33;18.33;;;;;28.53;50.71;99306.56;3199126;41;3561684;-57
2021/07/20 11:15:28;;;;;;;;;22.33;21.00;;;;;28.42;51.71;99298.94;3198247;41;3569989;-57
2021/07/20 11:18:04;;;;;;;;;21.00;20.00;;;;;28.50;51.29;99309.75;3198070;41;3575239;-57
2021/07/20 11:20:35;;;;;;;;;21.00;21.00;;;;;28.23;52.57;99296.06;3197866;41;3560622;-57
2021/07/20 11:23:05;;;;;;;;;22.33;20.33;;;;;28.33;50.48;99294.72;3189981;41;3564818;-58
2021/07/20 11:25:37;;;;;;;;;19.67;19.67;;;;;28.32;50.61;99293.03;3185907;41;2840234;-59
2021/07/20 11:28:05;;;;;;;;;22.67;21.00;;;;;27.89;49.87;99294.47;3203509;41;3561677;-58
2021/07/20 11:30:39;;;;;;;;;22.00;20.67;;;;;28.42;50.34;99298.94;3193053;41;3567953;-57
2021/07/20 11:33:20;;;;;;;;;23.00;21.00;;;;;28.53;50.27;99298.28;3198300;41;3568956;-58
2021/07/20 11:36:15;;;;;;;;;22.33;21.00;;;;;28.56;49.00;99295.06;3187730;41;2835772;-58